Time;durP1;ratioP1;P1;durP2;ratioP2;P2;SDS_P1;SDS_P2;PMS_P1;PMS_P2;Temp;Humidity;BMP_temperature;BMP_pressure;BME280_temperature;BME280_humidity;BME280_pressure;Samples;Min_cycle;Max_cycle;Signal;HPM_P1;HPM_P2
2023/02/14 00:00:04;;;;;;;35.15;13.50;;;6.20;99.90;;;;;;5042969;28;20066;-37
2023/02/14 00:02:30;;;;;;;27.40;13.00;;;6.20;99.90;;;;;;5029985;28;20025;-38
2023/02/14 00:04:55;;;;;;;32.35;13.98;;;6.10;99.90;;;;;;5028228;28;20367;-38
2023/02/14 00:07:21;;;;;;;28.45;12.98;;;6.10;99.90;;;;;;5029605;28;20452;-59
2023/02/14 00:09:47;;;;;;;33.97;12.77;;;6.10;99.90;;;;;;5029765;28;20116;-38
2023/02/14 00:12:12;;;;;;;32.17;13.52;;;6.10;99.90;;;;;;5025759;28;20034;-36
2023/02/14 00:17:22;;;;;;;40.15;14.43;;;6.10;99.90;;;;;;5052349;28;20068;-37
2023/02/14 00:19:47;;;;;;;30.40;13.65;;;6.10;99.90;;;;;;5033567;28;20057;-34
2023/02/14 00:22:13;;;;;;;33.60;14.20;;;6.10;99.90;;;;;;5026031;28;20553;-37
2023/02/14 00:24:39;;;;;;;30.38;14.55;;;6.10;99.90;;;;;;5028516;28;20797;-37
2023/02/14 00:27:04;;;;;;;30.13;14.25;;;6.10;99.90;;;;;;5031952;28;20038;-38
2023/02/14 00:29:31;;;;;;;36.17;15.13;;;6.20;99.90;;;;;;5024231;28;20104;-38
2023/02/14 00:31:57;;;;;;;33.55;14.52;;;6.20;99.90;;;;;;5027944;28;20035;-37
2023/02/14 00:34:23;;;;;;;32.45;12.77;;;6.20;99.90;;;;;;5031340;28;20429;-38
2023/02/14 00:36:48;;;;;;;36.95;14.48;;;6.10;99.90;;;;;;5019673;28;20887;-35
2023/02/14 00:39:15;;;;;;;31.83;14.32;;;6.10;99.90;;;;;;5034353;28;20112;-38
2023/02/14 00:41:42;;;;;;;31.27;13.52;;;6.00;99.90;;;;;;5035877;28;20033;-37
2023/02/14 00:44:09;;;;;;;29.25;12.43;;;6.00;99.90;;;;;;5032735;28;20417;-31
2023/02/14 00:46:36;;;;;;;30.33;14.07;;;5.90;99.90;;;;;;5031822;28;20033;-29
2023/02/14 00:49:01;;;;;;;29.05;14.27;;;5.90;99.90;;;;;;5026779;28;20038;-30
2023/02/14 00:51:27;;;;;;;35.35;14.82;;;5.90;99.90;;;;;;5017587;28;20060;-38
2023/02/14 00:53:53;;;;;;;34.95;14.68;;;5.90;99.90;;;;;;5022657;28;20056;-35
2023/02/14 00:56:19;;;;;;;25.92;11.90;;;5.90;99.90;;;;;;5035045;28;20029;-32
2023/02/14 00:58:45;;;;;;;28.13;12.90;;;5.80;99.90;;;;;;5035485;28;20022;-29
2023/02/14 01:01:12;;;;;;;27.45;13.57;;;5.80;99.90;;;;;;5034739;28;20474;-29
2023/02/14 01:03:38;;;;;;;32.50;13.77;;;5.80;99.90;;;;;;5042542;28;20029;-32
2023/02/14 01:06:05;;;;;;;29.10;12.68;;;5.70;99.90;;;;;;5033341;28;20033;-28
2023/02/14 01:08:31;;;;;;;32.63;12.77;;;5.70;99.90;;;;;;5026499;28;20040;-29
2023/02/14 01:10:57;;;;;;;33.35;13.98;;;5.80;99.90;;;;;;5027921;28;20033;-29
2023/02/14 01:13:22;;;;;;;32.35;13.77;;;5.80;99.90;;;;;;5039906;28;20082;-28
2023/02/14 01:15:50;;;;;;;29.33;12.85;;;5.80;99.90;;;;;;5030209;28;20025;-32
2023/02/14 01:18:17;;;;;;;31.75;13.63;;;5.80;99.90;;;;;;5048335;28;20033;-28
2023/02/14 01:20:43;;;;;;;35.15;14.60;;;5.80;99.90;;;;;;5035104;28;20028;-27
2023/02/14 01:23:08;;;;;;;28.92;13.70;;;5.80;99.90;;;;;;5039526;28;20116;-31
2023/02/14 01:25:37;;;;;;;29.67;13.52;;;5.80;99.90;;;;;;5042155;28;20064;-28
2023/02/14 01:28:03;;;;;;;34.70;14.60;;;5.80;99.90;;;;;;5048713;28;20075;-29
2023/02/14 01:30:29;;;;;;;34.92;13.60;;;5.80;99.90;;;;;;5046797;28;20493;-30
2023/02/14 01:32:55;;;;;;;30.15;13.80;;;5.80;99.90;;;;;;5039936;28;20040;-34
2023/02/14 01:35:20;;;;;;;29.83;13.07;;;5.70;99.90;;;;;;5054748;28;20025;-28
2023/02/14 01:37:46;;;;;;;33.67;13.63;;;5.70;99.90;;;;;;5050840;28;20409;-44
2023/02/14 01:40:13;;;;;;;30.92;13.52;;;5.70;99.90;;;;;;5051302;28;20021;-29
2023/02/14 01:42:38;;;;;;;28.88;12.90;;;5.70;99.90;;;;;;5041263;28;20087;-28
2023/02/14 01:45:21;;;;;;;28.33;14.00;;;5.70;99.90;;;;;;5034665;28;20037;-29
2023/02/14 01:47:53;;;;;;;29.33;13.70;;;5.60;99.90;;;;;;5048474;28;20106;-28
2023/02/14 01:50:21;;;;;;;33.08;13.48;;;5.60;99.90;;;;;;5039366;28;20025;-28
2023/02/14 01:52:56;;;;;;;35.92;13.10;;;5.60;99.90;;;;;;5039754;28;20389;-32
2023/02/14 01:55:27;;;;;;;31.65;11.77;;;5.60;99.90;;;;;;5052035;28;20465;-30
2023/02/14 01:58:00;;;;;;;30.67;13.38;;;5.50;99.90;;;;;;5047895;28;20420;-31
2023/02/14 02:03:12;;;;;;;31.38;13.38;;;5.50;99.90;;;;;;5048809;28;20389;-31
2023/02/14 02:05:43;;;;;;;29.10;13.20;;;5.50;99.90;;;;;;5046376;28;20032;-29
2023/02/14 02:08:09;;;;;;;29.63;13.80;;;5.50;99.90;;;;;;5018519;28;20029;-48
2023/02/14 02:10:35;;;;;;;30.52;13.95;;;5.60;99.90;;;;;;5032498;28;20022;-38
2023/02/14 02:13:06;;;;;;;32.10;14.48;;;5.60;99.90;;;;;;5014495;28;20049;-38
2023/02/14 02:15:47;;;;;;;26.80;12.20;;;5.60;99.90;;;;;;5016123;28;20029;-38
2023/02/14 02:18:43;;;;;;;29.85;13.10;;;5.60;99.90;;;;;;5034779;28;20477;-43
2023/02/14 02:21:29;;;;;;;28.75;12.65;;;5.60;99.90;;;;;;5032735;28;20030;-37
2023/02/14 02:24:00;;;;;;;27.05;12.68;;;5.60;99.90;;;;;;5028923;28;20026;-38
2023/02/14 02:26:58;;;;;;;31.25;12.60;;;5.70;99.90;;;;;;5029589;28;20467;-39
2023/02/14 02:29:50;;;;;;;31.65;12.85;;;5.80;99.90;;;;;;5036647;28;20116;-38
2023/02/14 02:32:42;;;;;;;31.25;13.60;;;5.90;99.90;;;;;;5039178;28;20423;-39
2023/02/14 02:35:42;;;;;;;28.88;13.35;;;5.90;99.90;;;;;;5036900;28;20057;-38
2023/02/14 02:38:35;;;;;;;32.97;13.52;;;5.90;99.90;;;;;;5039624;28;20030;-40
2023/02/14 02:41:52;;;;;;;27.23;12.75;;;5.90;99.90;;;;;;5027099;28;20176;-37
2023/02/14 02:44:29;;;;;;;27.88;12.90;;;5.90;99.90;;;;;;5008274;28;20108;-38
2023/02/14 02:47:15;;;;;;;26.08;12.98;;;5.90;99.90;;;;;;5029504;28;20401;-39
2023/02/14 02:53:06;;;;;;;28.55;11.82;;;5.90;99.90;;;;;;5027398;28;20048;-44
2023/02/14 02:58:54;;;;;;;;;;;5.80;99.90;;;;;;5011204;28;20065;-31
2023/02/14 03:01:28;;;;;;;25.92;12.18;;;5.90;99.90;;;;;;5030938;28;20292;-28
2023/02/14 03:06:47;;;;;;;30.17;13.35;;;5.80;99.90;;;;;;5033343;28;20100;-30
2023/02/14 03:09:34;;;;;;;28.17;11.43;;;5.70;99.90;;;;;;5030087;28;20033;-33
2023/02/14 03:12:12;;;;;;;27.90;12.93;;;5.80;99.90;;;;;;5028199;28;20400;-48
2023/02/14 03:15:04;;;;;;;27.33;11.23;;;5.80;99.90;;;;;;5053027;28;20032;-38
2023/02/14 03:17:55;;;;;;;26.63;11.15;;;5.70;99.90;;;;;;5043021;28;20090;-38
2023/02/14 03:20:42;;;;;;;28.88;12.65;;;5.60;99.90;;;;;;5025438;28;20033;-38
2023/02/14 03:23:21;;;;;;;25.50;12.18;;;5.50;99.90;;;;;;5052936;28;20032;-38
2023/02/14 03:26:13;;;;;;;26.35;11.38;;;5.50;99.90;;;;;;5039846;28;20026;-39
2023/02/14 03:29:05;;;;;;;24.70;11.88;;;5.50;99.90;;;;;;5007678;28;20077;-50
2023/02/14 03:31:54;;;;;;;30.10;11.65;;;5.70;99.90;;;;;;5040721;28;20029;-39
2023/02/14 03:34:20;;;;;;;25.60;10.65;;;5.80;99.90;;;;;;5052590;28;20371;-38
2023/02/14 03:36:58;;;;;;;28.92;13.18;;;5.80;99.90;;;;;;5037091;28;20018;-38
2023/02/14 03:39:53;;;;;;;23.90;11.23;;;5.70;99.90;;;;;;5013122;28;20084;-36
2023/02/14 03:42:27;;;;;;;22.73;11.35;;;5.70;99.90;;;;;;5021253;28;20099;-38
2023/02/14 03:44:55;;;;;;;26.90;12.32;;;5.70;99.90;;;;;;5032827;28;20103;-37
2023/02/14 03:47:25;;;;;;;24.25;10.50;;;5.80;99.90;;;;;;5024090;28;20026;-39
2023/02/14 03:49:55;;;;;;;26.33;11.80;;;5.80;99.90;;;;;;5015860;28;20034;-38
2023/02/14 03:52:23;;;;;;;23.55;12.25;;;5.80;99.90;;;;;;5052642;28;20029;-39
2023/02/14 03:54:51;;;;;;;;;;;5.80;99.90;;;;;;5053086;28;20503;-39
2023/02/14 03:57:29;;;;;;;22.70;11.63;;;5.80;99.90;;;;;;5038609;28;20383;-39
2023/02/14 03:59:55;;;;;;;26.33;12.43;;;5.70;99.90;;;;;;5029997;28;20084;-37
2023/02/14 04:02:45;;;;;;;27.55;10.60;;;5.70;99.90;;;;;;5024963;28;20026;-40
2023/02/14 04:05:24;;;;;;;27.52;12.18;;;5.70;99.90;;;;;;5030669;28;20068;-38
2023/02/14 04:07:52;;;;;;;22.55;10.90;;;5.60;99.90;;;;;;5037890;28;20445;-39
2023/02/14 04:10:19;;;;;;;31.60;12.30;;;5.60;99.90;;;;;;5028968;28;20041;-39
2023/02/14 04:12:45;;;;;;;29.23;12.10;;;5.60;99.90;;;;;;5028483;28;20107;-39
2023/02/14 04:15:12;;;;;;;29.80;12.32;;;5.60;99.90;;;;;;5023324;28;20022;-39
2023/02/14 04:20:22;;;;;;;30.13;10.95;;;5.60;99.90;;;;;;5036654;28;20044;-37
2023/02/14 04:22:50;;;;;;;23.85;11.30;;;5.70;99.90;;;;;;5042189;28;20478;-51
2023/02/14 04:25:16;;;;;;;25.70;10.90;;;5.60;99.90;;;;;;5046616;28;20029;-41
2023/02/14 04:27:42;;;;;;;24.38;10.07;;;5.60;99.90;;;;;;5038547;28;20090;-39
2023/02/14 04:30:09;;;;;;;29.85;9.88;;;5.40;99.90;;;;;;5035195;28;20029;-38
2023/02/14 04:32:35;;;;;;;24.70;11.45;;;5.40;99.90;;;;;;5034912;28;20060;-39
2023/02/14 04:35:00;;;;;;;25.40;11.38;;;5.50;99.90;;;;;;5044971;28;20025;-30
2023/02/14 04:37:26;;;;;;;26.50;11.10;;;5.40;99.90;;;;;;5051089;28;20104;-33
2023/02/14 04:39:51;;;;;;;23.58;10.60;;;5.40;99.90;;;;;;5016115;28;20033;-30
2023/02/14 04:42:17;;;;;;;27.38;10.93;;;5.50;99.90;;;;;;5029407;28;20030;-29
2023/02/14 04:44:43;;;;;;;24.60;11.18;;;5.50;99.90;;;;;;5036113;28;20486;-49
2023/02/14 04:47:09;;;;;;;27.35;11.63;;;5.50;99.90;;;;;;5035732;28;20029;-39
2023/02/14 04:49:35;;;;;;;24.23;10.30;;;5.40;99.90;;;;;;5017550;28;20033;-39
2023/02/14 04:52:01;;;;;;;21.92;9.98;;;5.40;99.90;;;;;;5052762;28;20037;-30
2023/02/14 04:54:28;;;;;;;29.30;11.20;;;5.30;99.90;;;;;;5055566;28;20418;-37
2023/02/14 04:56:54;;;;;;;28.00;10.23;;;5.40;99.90;;;;;;5044769;28;20473;-28
2023/02/14 04:59:19;;;;;;;20.60;10.23;;;5.40;99.90;;;;;;5047315;28;20036;-32
2023/02/14 05:01:45;;;;;;;22.67;10.52;;;5.30;99.90;;;;;;5035718;28;20474;-28
2023/02/14 05:04:11;;;;;;;26.27;11.07;;;5.30;99.90;;;;;;5033276;28;20449;-38
2023/02/14 05:06:36;;;;;;;26.35;10.15;;;5.20;99.90;;;;;;5036647;28;20037;-29
2023/02/14 05:09:02;;;;;;;26.67;10.77;;;5.10;99.90;;;;;;5032984;28;20038;-29
2023/02/14 05:11:28;;;;;;;22.98;10.60;;;5.10;99.90;;;;;;5032693;28;20100;-35
2023/02/14 05:13:55;;;;;;;25.52;10.65;;;5.10;99.90;;;;;;5033682;28;20033;-28
2023/02/14 05:16:21;;;;;;;20.25;9.43;;;5.00;99.90;;;;;;5034113;28;20025;-36
2023/02/14 05:18:46;;;;;;;28.42;10.73;;;5.00;99.90;;;;;;5040345;28;20034;-30
2023/02/14 05:21:12;;;;;;;24.95;10.88;;;4.90;99.90;;;;;;5033156;28;20032;-30
2023/02/14 05:23:38;;;;;;;22.35;9.77;;;4.90;99.90;;;;;;5032300;28;20073;-30
2023/02/14 05:26:04;;;;;;;24.80;10.30;;;4.90;99.90;;;;;;5033889;28;20025;-29
2023/02/14 05:28:30;;;;;;;24.95;11.05;;;4.80;99.90;;;;;;5036203;28;20536;-32
2023/02/14 05:30:57;;;;;;;29.33;10.15;;;4.80;99.90;;;;;;5030579;28;20148;-32
2023/02/14 05:33:23;;;;;;;25.33;10.07;;;4.80;99.90;;;;;;5033832;28;20053;-30
2023/02/14 05:35:49;;;;;;;23.52;9.60;;;4.80;99.90;;;;;;5026342;28;20063;-37
2023/02/14 05:38:15;;;;;;;20.65;9.95;;;4.80;99.90;;;;;;5025238;28;20088;-41
2023/02/14 05:40:43;;;;;;;26.05;9.95;;;4.70;99.90;;;;;;5034076;28;20036;-28
2023/02/14 05:43:09;;;;;;;20.67;9.07;;;4.70;99.90;;;;;;5039499;28;20040;-30
2023/02/14 05:45:35;;;;;;;18.95;9.48;;;4.60;99.90;;;;;;5036598;28;20029;-32
2023/02/14 05:48:01;;;;;;;23.00;9.90;;;4.50;99.90;;;;;;5026739;28;20112;-29
2023/02/14 05:50:27;;;;;;;20.80;9.18;;;4.50;99.90;;;;;;5037713;28;20150;-45
2023/02/14 05:52:54;;;;;;;25.88;9.32;;;4.50;99.90;;;;;;5038231;28;20040;-39
2023/02/14 05:55:19;;;;;;;28.92;10.07;;;4.50;99.90;;;;;;5032286;28;20033;-39
2023/02/14 05:57:45;;;;;;;24.65;9.15;;;4.40;99.90;;;;;;5034234;28;20024;-39
2023/02/14 06:00:13;;;;;;;22.55;10.07;;;4.40;99.90;;;;;;5051404;28;20029;-39
2023/02/14 06:02:39;;;;;;;25.60;10.60;;;4.30;99.90;;;;;;5016740;28;20430;-38
2023/02/14 06:05:06;;;;;;;23.80;9.23;;;4.30;99.90;;;;;;5014515;28;20033;-39
2023/02/14 06:07:31;;;;;;;27.80;11.27;;;4.30;99.90;;;;;;5022420;28;20111;-39
2023/02/14 06:09:58;;;;;;;25.33;10.93;;;4.30;99.90;;;;;;5054276;28;20072;-38
2023/02/14 06:12:24;;;;;;;22.67;9.90;;;4.30;99.90;;;;;;5038984;28;20034;-37
2023/02/14 06:14:49;;;;;;;22.52;10.80;;;4.20;99.90;;;;;;5048811;28;20032;-30
2023/02/14 06:17:16;;;;;;;27.73;11.48;;;4.20;99.90;;;;;;5027965;28;20025;-30
2023/02/14 06:19:42;;;;;;;24.15;11.70;;;4.20;99.90;;;;;;5043916;28;20474;-31
2023/02/14 06:22:08;;;;;;;26.70;11.35;;;4.20;99.90;;;;;;5024354;28;20028;-34
2023/02/14 06:24:34;;;;;;;32.42;13.10;;;4.20;99.90;;;;;;5050375;28;20032;-29
2023/02/14 06:26:59;;;;;;;25.13;12.00;;;4.20;99.90;;;;;;5037026;28;20082;-32
2023/02/14 06:29:25;;;;;;;28.77;13.00;;;4.20;99.90;;;;;;5049124;28;20029;-30
2023/02/14 06:31:51;;;;;;;26.45;11.90;;;4.20;99.90;;;;;;5048649;28;20021;-29
2023/02/14 06:34:16;;;;;;;24.63;12.00;;;4.20;99.90;;;;;;5030395;28;20124;-59
2023/02/14 06:36:43;;;;;;;27.02;10.75;;;4.10;99.90;;;;;;5017416;28;20105;-28
2023/02/14 06:39:09;;;;;;;23.67;11.02;;;4.10;99.90;;;;;;5031524;28;20466;-31
2023/02/14 06:41:34;;;;;;;21.20;11.13;;;4.10;99.90;;;;;;5033868;28;20156;-28
2023/02/14 06:44:00;;;;;;;25.42;11.45;;;4.10;99.90;;;;;;5042798;28;20017;-28
2023/02/14 06:46:26;;;;;;;26.60;11.32;;;4.10;99.90;;;;;;5052329;28;20040;-29
2023/02/14 06:48:51;;;;;;;25.65;10.93;;;4.00;99.90;;;;;;5035959;28;20025;-30
2023/02/14 06:51:17;;;;;;;20.80;10.75;;;4.00;99.90;;;;;;5033392;28;20470;-29
2023/02/14 06:53:42;;;;;;;27.00;11.05;;;4.00;99.90;;;;;;5038580;28;20399;-38
2023/02/14 06:56:08;;;;;;;23.05;10.20;;;3.90;99.90;;;;;;5051036;28;20028;-39
2023/02/14 06:58:34;;;;;;;29.33;11.88;;;4.00;99.90;;;;;;5049829;28;20024;-39
2023/02/14 07:01:00;;;;;;;24.08;11.27;;;4.00;99.90;;;;;;5047129;28;20033;-38
2023/02/14 07:03:26;;;;;;;28.70;11.25;;;4.00;99.90;;;;;;5031495;28;20421;-39
2023/02/14 07:05:52;;;;;;;23.27;11.23;;;3.90;99.90;;;;;;5029368;28;20036;-37
2023/02/14 07:08:19;;;;;;;24.83;11.60;;;3.90;99.90;;;;;;5028608;28;20470;-38
2023/02/14 07:10:45;;;;;;;25.15;11.35;;;4.00;99.90;;;;;;5031968;28;20025;-38
2023/02/14 07:13:11;;;;;;;19.95;10.40;;;4.00;99.90;;;;;;5040403;28;20036;-41
2023/02/14 07:15:36;;;;;;;24.45;11.43;;;4.00;99.90;;;;;;5032025;28;20079;-30
2023/02/14 07:18:40;;;;;;;32.40;11.73;;;4.00;99.90;;;;;;5029144;28;20101;-33
2023/02/14 07:21:06;;;;;;;29.00;11.98;;;4.00;99.90;;;;;;5013211;28;20060;-33
2023/02/14 07:23:31;;;;;;;24.30;11.40;;;4.10;99.90;;;;;;5024018;28;20360;-28
2023/02/14 07:25:57;;;;;;;28.70;12.70;;;4.10;99.90;;;;;;5028918;28;20061;-34
2023/02/14 07:28:23;;;;;;;26.63;11.27;;;4.10;99.90;;;;;;5028913;28;20041;-50
2023/02/14 07:30:48;;;;;;;25.88;11.15;;;4.20;99.90;;;;;;5029526;28;20046;-31
2023/02/14 07:33:15;;;;;;;25.63;10.63;;;4.20;99.90;;;;;;5032485;28;20049;-33
2023/02/14 07:35:41;;;;;;;31.77;13.13;;;4.30;99.90;;;;;;5032842;28;20510;-34
2023/02/14 07:38:07;;;;;;;27.63;12.77;;;4.30;99.90;;;;;;5030482;28;20040;-33
2023/02/14 07:40:32;;;;;;;26.77;11.45;;;4.40;99.90;;;;;;5030433;28;20017;-39
2023/02/14 07:42:59;;;;;;;23.67;11.68;;;4.40;99.90;;;;;;5033989;28;20100;-32
2023/02/14 07:45:25;;;;;;;24.35;11.90;;;4.50;99.90;;;;;;5017865;28;20026;-32
2023/02/14 07:47:53;;;;;;;26.75;11.75;;;4.50;99.90;;;;;;5032982;28;20543;-41
2023/02/14 07:50:20;;;;;;;25.70;11.13;;;4.50;99.90;;;;;;5048475;28;20540;-31
2023/02/14 07:52:46;;;;;;;26.33;11.48;;;4.60;99.90;;;;;;5056661;28;20035;-30
2023/02/14 07:55:13;;;;;;;23.17;11.98;;;4.60;99.90;;;;;;5056655;28;20029;-33
2023/02/14 07:57:38;;;;;;;27.48;10.32;;;4.70;99.90;;;;;;5046532;28;20481;-34
2023/02/14 08:00:05;;;;;;;23.90;12.05;;;4.80;99.90;;;;;;5036181;28;20033;-31
2023/02/14 08:02:31;;;;;;;24.80;11.40;;;4.80;99.90;;;;;;5034848;28;20486;-31
2023/02/14 08:04:56;;;;;;;25.17;11.52;;;4.90;99.90;;;;;;5036569;28;20084;-35
2023/02/14 08:07:22;;;;;;;31.75;12.60;;;4.90;99.90;;;;;;5037930;28;20033;-39
2023/02/14 08:09:48;;;;;;;26.67;11.93;;;5.00;99.90;;;;;;5033036;28;20028;-31
2023/02/14 08:17:47;;;;;;;22.60;11.55;;;5.10;99.90;;;;;;5016212;28;20092;-34
2023/02/14 08:20:13;;;;;;;21.15;11.30;;;5.20;99.90;;;;;;5045816;28;20037;-32
2023/02/14 08:22:39;;;;;;;22.08;10.30;;;5.20;99.90;;;;;;5033245;28;20430;-32
2023/02/14 08:25:04;;;;;;;22.88;11.23;;;5.30;99.90;;;;;;5031811;28;20033;-30
2023/02/14 08:27:30;;;;;;;28.88;12.70;;;5.40;99.90;;;;;;5035516;28;20389;-32
2023/02/14 08:29:56;;;;;;;29.17;13.05;;;5.50;99.90;;;;;;5050645;28;20389;-33
2023/02/14 08:32:21;;;;;;;30.05;13.20;;;5.50;99.90;;;;;;5039347;28;20037;-32
2023/02/14 08:34:49;;;;;;;31.00;12.57;;;5.60;99.90;;;;;;5022771;28;20033;-32
2023/02/14 08:37:15;;;;;;;26.17;12.48;;;5.70;99.90;;;;;;5028792;28;20025;-32
2023/02/14 08:39:41;;;;;;;27.35;13.63;;;5.70;99.90;;;;;;5034580;28;20471;-29
2023/02/14 08:42:07;;;;;;;41.30;15.80;;;5.80;99.90;;;;;;5024268;28;20508;-28
2023/02/14 08:44:33;;;;;;;35.70;14.38;;;5.90;99.90;;;;;;5048392;28;20029;-38
2023/02/14 08:46:58;;;;;;;33.17;14.93;;;6.00;99.90;;;;;;5054035;28;20036;-38
2023/02/14 08:49:24;;;;;;;30.08;13.52;;;6.00;99.90;;;;;;5033445;28;20053;-38
2023/02/14 08:51:49;;;;;;;29.88;13.50;;;6.10;99.90;;;;;;5029789;28;20413;-40
2023/02/14 08:54:15;;;;;;;36.83;14.05;;;6.20;99.90;;;;;;5021647;28;20035;-39
2023/02/14 08:56:41;;;;;;;35.60;14.80;;;6.20;99.90;;;;;;5023975;28;20022;-38
2023/02/14 08:59:07;;;;;;;32.85;15.40;;;6.30;99.90;;;;;;5018436;28;20100;-40
2023/02/14 09:01:32;;;;;;;33.58;14.32;;;6.40;99.90;;;;;;5021716;28;20481;-38
2023/02/14 09:03:58;;;;;;;30.30;14.27;;;6.50;99.90;;;;;;5028215;28;20059;-37
2023/02/14 09:06:25;;;;;;;36.55;15.00;;;6.60;99.90;;;;;;5038242;28;20025;-68
2023/02/14 09:08:52;;;;;;;40.80;14.90;;;6.60;99.90;;;;;;5028246;28;20018;-39
2023/02/14 09:11:21;;;;;;;32.43;16.90;;;6.70;99.90;;;;;;5025770;28;20048;-39
2023/02/14 09:13:47;;;;;;;33.75;15.73;;;6.80;99.90;;;;;;5029924;28;20117;-37
2023/02/14 09:16:16;;;;;;;33.58;14.57;;;6.80;99.90;;;;;;5031131;28;20549;-38
2023/02/14 09:18:42;;;;;;;32.22;15.30;;;6.90;99.90;;;;;;5034261;28;20498;-31
2023/02/14 09:21:10;;;;;;;32.22;15.88;;;7.00;99.90;;;;;;5033045;28;20433;-31
2023/02/14 09:23:37;;;;;;;;;;;7.00;99.90;;;;;;5032867;28;20444;-31
2023/02/14 09:26:05;;;;;;;29.65;14.18;;;7.10;99.90;;;;;;5031165;28;19909;-38
2023/02/14 09:28:30;;;;;;;;;;;7.10;99.90;;;;;;5028596;28;20079;-38
2023/02/14 09:31:40;;;;;;;28.23;13.18;;;7.20;99.90;;;;;;5032621;28;19913;-41
2023/02/14 09:39:35;;;;;;;28.40;13.93;;;7.50;99.90;;;;;;5034785;28;20044;-39
2023/02/14 09:42:16;;;;;;;30.40;13.90;;;7.60;99.90;;;;;;5028027;28;20030;-36
2023/02/14 09:44:56;;;;;;;28.35;13.20;;;7.70;99.90;;;;;;5022600;28;20083;-38
2023/02/14 09:47:46;;;;;;;33.10;13.45;;;7.70;99.90;;;;;;5032149;28;20040;-40
2023/02/14 09:50:19;;;;;;;31.92;13.85;;;7.80;99.90;;;;;;5016258;28;20021;-30
2023/02/14 09:52:48;;;;;;;33.55;14.77;;;7.90;99.90;;;;;;5031651;28;20855;-31
2023/02/14 09:55:16;;;;;;;28.73;15.20;;;7.90;99.90;;;;;;5026884;28;20014;-31
2023/02/14 09:58:12;;;;;;;30.37;14.13;;;8.00;99.90;;;;;;5032986;28;20026;-33
2023/02/14 10:00:44;;;;;;;27.65;14.32;;;8.10;99.90;;;;;;5031955;28;20753;-49
2023/02/14 10:03:32;;;;;;;33.10;14.57;;;8.20;99.90;;;;;;5049306;28;20029;-55
2023/02/14 10:06:27;;;;;;;30.70;14.25;;;8.30;99.90;;;;;;5038451;28;20032;-32
2023/02/14 10:09:11;;;;;;;27.55;14.38;;;8.40;99.90;;;;;;5036860;28;20040;-32
2023/02/14 10:11:38;;;;;;;37.35;15.43;;;8.50;99.90;;;;;;5018120;28;20034;-30
2023/02/14 10:14:11;;;;;;;30.92;14.05;;;8.60;99.90;;;;;;5027289;28;20032;-38
2023/02/14 10:16:47;;;;;;;30.38;14.52;;;8.70;99.90;;;;;;5031506;28;20035;-30
2023/02/14 10:19:18;;;;;;;31.80;15.18;;;8.80;99.90;;;;;;5026507;28;20076;-29
2023/02/14 10:21:59;;;;;;;36.63;15.35;;;8.90;99.90;;;;;;5025504;28;20040;-29
2023/02/14 10:24:38;;;;;;;36.58;14.70;;;9.00;99.90;;;;;;5033932;28;20091;-31
2023/02/14 10:27:28;;;;;;;39.90;17.17;;;9.10;99.90;;;;;;5033844;28;20060;-33
2023/02/14 10:29:54;;;;;;;34.03;15.18;;;9.20;99.90;;;;;;5033840;28;20026;-35
2023/02/14 10:32:45;;;;;;;34.15;15.98;;;9.30;99.90;;;;;;5033482;28;20136;-29
2023/02/14 10:35:24;;;;;;;30.95;15.55;;;9.40;99.90;;;;;;5049030;28;20481;-33
2023/02/14 10:38:16;;;;;;;31.77;15.25;;;9.50;99.90;;;;;;5053540;28;20036;-33
2023/02/14 10:41:00;;;;;;;37.72;15.73;;;9.60;99.90;;;;;;5036286;28;20036;-49
2023/02/14 10:43:52;;;;;;;29.45;14.82;;;9.60;99.90;;;;;;5033037;28;20496;-41
2023/02/14 10:46:46;;;;;;;28.52;15.40;;;9.70;99.90;;;;;;5038508;28;20394;-39
2023/02/14 10:49:38;;;;;;;32.42;14.77;;;9.80;99.90;;;;;;5032982;28;20026;-38
2023/02/14 10:52:41;;;;;;;34.50;16.23;;;9.90;99.90;;;;;;5015104;28;20068;-35
2023/02/14 10:55:48;;;;;;;31.98;14.00;;;10.00;99.90;;;;;;4999477;28;20448;-38
2023/02/14 10:58:18;;;;;;;36.83;16.13;;;10.10;99.90;;;;;;5008285;28;20041;-39
2023/02/14 11:01:08;;;;;;;37.53;16.83;;;10.20;99.90;;;;;;5031893;28;20041;-42
2023/02/14 11:03:36;;;;;;;32.10;15.30;;;10.30;99.90;;;;;;5031160;28;20036;-38
2023/02/14 11:06:02;;;;;;;33.95;15.65;;;10.40;99.90;;;;;;5031900;28;20540;-40
2023/02/14 11:08:33;;;;;;;35.90;16.90;;;10.40;99.90;;;;;;5018275;28;20109;-39
2023/02/14 11:11:39;;;;;;;34.13;15.77;;;10.50;99.90;;;;;;5013386;28;20422;-40
2023/02/14 11:14:22;;;;;;;31.23;15.30;;;10.70;99.90;;;;;;5015880;28;20038;-34
2023/02/14 11:16:50;;;;;;;31.20;15.88;;;10.80;99.90;;;;;;5026866;28;20482;-29
2023/02/14 11:19:35;;;;;;;34.40;15.85;;;10.90;99.90;;;;;;5027797;28;20033;-32
2023/02/14 11:22:01;;;;;;;33.53;15.90;;;11.00;99.90;;;;;;5033090;28;20060;-29
2023/02/14 11:24:34;;;;;;;31.58;15.50;;;11.10;99.90;;;;;;5027831;28;20434;-31
2023/02/14 11:27:03;;;;;;;32.78;15.70;;;11.10;99.90;;;;;;5032926;28;20026;-34
2023/02/14 11:29:41;;;;;;;34.40;15.07;;;11.20;99.90;;;;;;5030852;28;20033;-34
2023/02/14 11:32:07;;;;;;;;;;;11.30;99.90;;;;;;5024266;28;20456;-31
2023/02/14 11:34:43;;;;;;;34.25;14.48;;;11.40;99.90;;;;;;5021843;28;20384;-31
2023/02/14 11:37:21;;;;;;;33.22;15.70;;;11.50;99.90;;;;;;5032766;28;20478;-31
2023/02/14 11:39:48;;;;;;;;;;;11.50;99.90;;;;;;5015291;28;20394;-32
2023/02/14 11:42:51;;;;;;;24.77;9.95;;;11.50;99.90;;;;;;5029633;28;20351;-31
2023/02/14 11:45:35;;;;;;;36.85;15.68;;;11.60;99.90;;;;;;5030267;28;20132;-36
2023/02/14 11:48:25;;;;;;;28.45;14.13;;;11.60;99.90;;;;;;5014120;28;20033;-31
2023/02/14 11:51:03;;;;;;;28.52;14.63;;;11.70;99.90;;;;;;5023417;28;20478;-31
2023/02/14 11:53:44;;;;;;;30.17;13.10;;;11.80;99.90;;;;;;5030326;28;20064;-39
2023/02/14 11:56:11;;;;;;;30.98;14.55;;;11.80;99.90;;;;;;5029174;28;20032;-33
2023/02/14 11:58:49;;;;;;;34.47;14.45;;;11.90;99.90;;;;;;5024525;28;20089;-34
2023/02/14 12:01:28;;;;;;;33.08;14.20;;;11.90;99.90;;;;;;5021119;28;20026;-40
2023/02/14 12:03:56;;;;;;;34.28;15.90;;;12.10;99.90;;;;;;5030839;28;20025;-34
2023/02/14 12:06:23;;;;;;;;;;;12.10;99.90;;;;;;5031004;28;20022;-32
2023/02/14 12:08:49;;;;;;;33.33;14.07;;;12.10;99.90;;;;;;5027433;28;20434;-30
2023/02/14 12:11:22;;;;;;;31.02;15.13;;;12.20;99.90;;;;;;5030905;28;20026;-30
2023/02/14 12:13:53;;;;;;;29.42;14.20;;;12.20;99.90;;;;;;5025185;28;20076;-30
2023/02/14 12:16:33;;;;;;;29.50;14.57;;;12.20;99.90;;;;;;5027274;28;20489;-30
2023/02/14 12:19:04;;;;;;;35.55;14.20;;;12.30;99.90;;;;;;5041710;28;20038;-36
2023/02/14 12:21:43;;;;;;;26.92;13.55;;;12.30;99.90;;;;;;5027008;28;20024;-31
2023/02/14 12:24:29;;;;;;;30.95;14.82;;;12.40;99.90;;;;;;5032216;28;20108;-34
2023/02/14 12:27:21;;;;;;;29.13;14.47;;;12.50;99.90;;;;;;5028788;28;20045;-31
2023/02/14 12:30:14;;;;;;;33.40;14.32;;;12.60;99.90;;;;;;5030937;28;20032;-29
2023/02/14 12:32:48;;;;;;;31.33;15.23;;;12.70;99.90;;;;;;5011338;28;20536;-31
2023/02/14 12:35:35;;;;;;;28.70;13.57;;;12.80;99.90;;;;;;5040601;28;20103;-30
2023/02/14 12:38:13;;;;;;;32.13;14.05;;;12.80;99.90;;;;;;5054127;28;20056;-30
2023/02/14 12:41:06;;;;;;;30.75;13.32;;;12.90;99.90;;;;;;5031315;28;20028;-34
2023/02/14 12:43:51;;;;;;;32.15;14.32;;;12.90;99.90;;;;;;5033560;28;20496;-58
2023/02/14 12:46:23;;;;;;;31.25;13.63;;;13.00;99.90;;;;;;5018923;28;20490;-39
2023/02/14 12:49:18;;;;;;;35.35;14.07;;;13.00;99.90;;;;;;5033180;28;20029;-40
2023/02/14 12:52:01;;;;;;;24.73;12.55;;;13.00;99.90;;;;;;5009769;28;20034;-39
2023/02/14 12:54:58;;;;;;;30.20;13.55;;;13.10;99.90;;;;;;5031079;28;20482;-38
2023/02/14 12:57:51;;;;;;;28.20;13.93;;;13.10;99.90;;;;;;5036216;28;20025;-39
2023/02/14 13:00:47;;;;;;;26.83;13.73;;;13.20;99.90;;;;;;5036016;28;20478;-39
2023/02/14 13:03:34;;;;;;;35.97;13.85;;;13.30;99.90;;;;;;5034769;28;20159;-40
2023/02/14 13:06:02;;;;;;;29.27;13.30;;;13.30;99.90;;;;;;5017540;28;20088;-39
2023/02/14 13:09:00;;;;;;;32.03;14.85;;;13.40;99.90;;;;;;5034673;28;20028;-39
2023/02/14 13:11:38;;;;;;;26.08;12.98;;;13.50;99.90;;;;;;5055127;28;20033;-40
2023/02/14 13:14:30;;;;;;;24.17;13.55;;;13.60;99.90;;;;;;5021354;28;20041;-43
2023/02/14 13:17:16;;;;;;;27.98;12.75;;;13.60;99.90;;;;;;5020229;28;20382;-41
2023/02/14 13:20:18;;;;;;;32.17;14.57;;;13.70;99.90;;;;;;5030682;28;20032;-41
2023/02/14 13:22:45;;;;;;;27.38;13.48;;;13.60;99.90;;;;;;5017096;28;20474;-39
2023/02/14 13:25:32;;;;;;;32.27;13.53;;;13.60;99.90;;;;;;5045421;28;20038;-43
2023/02/14 13:28:01;;;;;;;27.27;13.30;;;13.50;99.90;;;;;;5026393;28;20029;-32
2023/02/14 13:30:30;;;;;;;32.13;15.20;;;13.60;99.90;;;;;;5041366;28;20120;-31
2023/02/14 13:33:00;;;;;;;31.83;13.85;;;13.60;99.90;;;;;;5030650;28;20040;-30